sensor_id;sensor_type;location;lat;lon;timestamp;P1;durP1;ratioP1;P2;durP2;ratioP2
151;SDS011;68;48.792;9.164;2022-09-01T00:02:29;12.65;;;6.80;;
151;SDS011;68;48.792;9.164;2022-09-01T00:04:56;10.55;;;6.65;;
151;SDS011;68;48.792;9.164;2022-09-01T00:07:29;9.43;;;6.50;;
151;SDS011;68;48.792;9.164;2022-09-01T00:09:56;11.23;;;7.10;;
151;SDS011;68;48.792;9.164;2022-09-01T00:12:23;12.88;;;7.90;;
151;SDS011;68;48.792;9.164;2022-09-01T00:14:50;10.85;;;6.80;;
151;SDS011;68;48.792;9.164;2022-09-01T00:17:20;11.77;;;7.00;;
151;SDS011;68;48.792;9.164;2022-09-01T00:19:46;13.03;;;6.90;;
151;SDS011;68;48.792;9.164;2022-09-01T00:22:13;13.70;;;7.60;;
151;SDS011;68;48.792;9.164;2022-09-01T00:24:40;10.73;;;7.00;;
151;SDS011;68;48.792;9.164;2022-09-01T00:27:07;10.10;;;7.10;;
151;SDS011;68;48.792;9.164;2022-09-01T00:29:34;13.45;;;7.43;;
151;SDS011;68;48.792;9.164;2022-09-01T00:32:01;12.70;;;7.22;;
151;SDS011;68;48.792;9.164;2022-09-01T00:34:30;11.52;;;7.10;;
151;SDS011;68;48.792;9.164;2022-09-01T00:36:57;12.15;;;7.72;;
151;SDS011;68;48.792;9.164;2022-09-01T00:39:23;14.17;;;7.80;;
151;SDS011;68;48.792;9.164;2022-09-01T00:41:50;12.27;;;7.60;;
151;SDS011;68;48.792;9.164;2022-09-01T00:44:18;11.38;;;7.32;;
151;SDS011;68;48.792;9.164;2022-09-01T00:46:48;13.88;;;7.80;;
151;SDS011;68;48.792;9.164;2022-09-01T00:49:18;14.35;;;8.43;;
151;SDS011;68;48.792;9.164;2022-09-01T00:51:50;12.35;;;7.53;;
151;SDS011;68;48.792;9.164;2022-09-01T00:54:21;17.50;;;9.20;;
151;SDS011;68;48.792;9.164;2022-09-01T00:56:51;12.00;;;7.70;;
151;SDS011;68;48.792;9.164;2022-09-01T00:59:19;11.25;;;7.50;;
151;SDS011;68;48.792;9.164;2022-09-01T01:01:47;16.92;;;8.50;;
151;SDS011;68;48.792;9.164;2022-09-01T01:04:14;13.35;;;8.00;;
151;SDS011;68;48.792;9.164;2022-09-01T01:06:42;14.27;;;7.15;;
151;SDS011;68;48.792;9.164;2022-09-01T01:09:15;15.65;;;7.60;;
151;SDS011;68;48.792;9.164;2022-09-01T01:11:42;13.65;;;7.70;;
151;SDS011;68;48.792;9.164;2022-09-01T01:14:12;13.95;;;7.60;;
151;SDS011;68;48.792;9.164;2022-09-01T01:16:42;12.05;;;7.60;;
151;SDS011;68;48.792;9.164;2022-09-01T01:19:12;14.05;;;7.18;;
151;SDS011;68;48.792;9.164;2022-09-01T01:22:02;13.77;;;7.47;;
151;SDS011;68;48.792;9.164;2022-09-01T01:24:50;11.80;;;7.47;;
151;SDS011;68;48.792;9.164;2022-09-01T01:27:17;13.00;;;6.88;;
151;SDS011;68;48.792;9.164;2022-09-01T01:29:45;13.85;;;7.68;;
151;SDS011;68;48.792;9.164;2022-09-01T01:32:14;10.45;;;7.13;;
151;SDS011;68;48.792;9.164;2022-09-01T01:34:42;12.57;;;7.78;;
151;SDS011;68;48.792;9.164;2022-09-01T01:37:11;15.88;;;7.70;;
151;SDS011;68;48.792;9.164;2022-09-01T01:39:38;12.73;;;6.85;;
151;SDS011;68;48.792;9.164;2022-09-01T01:42:09;12.00;;;7.18;;
151;SDS011;68;48.792;9.164;2022-09-01T01:44:36;11.68;;;7.57;;
151;SDS011;68;48.792;9.164;2022-09-01T01:47:05;11.70;;;7.53;;
151;SDS011;68;48.792;9.164;2022-09-01T01:49:37;11.05;;;7.05;;
151;SDS011;68;48.792;9.164;2022-09-01T01:52:07;12.30;;;6.97;;
151;SDS011;68;48.792;9.164;2022-09-01T01:54:38;13.35;;;6.70;;
151;SDS011;68;48.792;9.164;2022-09-01T01:57:05;12.93;;;6.72;;
151;SDS011;68;48.792;9.164;2022-09-01T01:59:34;9.43;;;6.38;;
151;SDS011;68;48.792;9.164;2022-09-01T02:02:02;9.90;;;6.32;;
151;SDS011;68;48.792;9.164;2022-09-01T02:04:33;10.10;;;6.68;;
151;SDS011;68;48.792;9.164;2022-09-01T02:07:01;10.32;;;6.63;;
151;SDS011;68;48.792;9.164;2022-09-01T02:09:27;12.13;;;7.25;;
151;SDS011;68;48.792;9.164;2022-09-01T02:11:54;11.60;;;7.28;;
151;SDS011;68;48.792;9.164;2022-09-01T02:14:23;13.43;;;7.82;;
151;SDS011;68;48.792;9.164;2022-09-01T02:16:51;12.05;;;6.72;;
151;SDS011;68;48.792;9.164;2022-09-01T02:19:20;12.43;;;7.57;;
151;SDS011;68;48.792;9.164;2022-09-01T02:21:46;10.52;;;6.55;;
151;SDS011;68;48.792;9.164;2022-09-01T02:24:18;11.75;;;7.50;;
151;SDS011;68;48.792;9.164;2022-09-01T02:26:45;13.57;;;7.40;;
151;SDS011;68;48.792;9.164;2022-09-01T02:29:17;13.15;;;7.38;;
151;SDS011;68;48.792;9.164;2022-09-01T02:31:46;16.20;;;8.15;;
151;SDS011;68;48.792;9.164;2022-09-01T02:34:19;12.07;;;7.47;;
151;SDS011;68;48.792;9.164;2022-09-01T02:36:48;13.38;;;7.72;;
151;SDS011;68;48.792;9.164;2022-09-01T02:39:18;11.98;;;7.60;;
151;SDS011;68;48.792;9.164;2022-09-01T02:41:47;14.13;;;7.80;;
151;SDS011;68;48.792;9.164;2022-09-01T02:44:18;14.63;;;8.20;;
151;SDS011;68;48.792;9.164;2022-09-01T02:46:46;10.20;;;6.40;;
151;SDS011;68;48.792;9.164;2022-09-01T02:49:15;11.60;;;6.95;;
151;SDS011;68;48.792;9.164;2022-09-01T02:51:46;12.07;;;6.75;;
151;SDS011;68;48.792;9.164;2022-09-01T02:54:15;13.50;;;8.07;;
151;SDS011;68;48.792;9.164;2022-09-01T02:56:43;20.25;;;7.22;;
151;SDS011;68;48.792;9.164;2022-09-01T02:59:12;9.75;;;6.68;;
151;SDS011;68;48.792;9.164;2022-09-01T03:01:39;12.88;;;7.15;;
151;SDS011;68;48.792;9.164;2022-09-01T03:04:09;12.63;;;6.93;;
151;SDS011;68;48.792;9.164;2022-09-01T03:06:37;10.30;;;6.90;;
151;SDS011;68;48.792;9.164;2022-09-01T03:09:07;12.93;;;7.38;;
151;SDS011;68;48.792;9.164;2022-09-01T03:11:36;11.10;;;7.32;;
151;SDS011;68;48.792;9.164;2022-09-01T03:14:04;10.45;;;7.32;;
151;SDS011;68;48.792;9.164;2022-09-01T03:16:32;12.23;;;6.72;;
151;SDS011;68;48.792;9.164;2022-09-01T03:19:00;14.30;;;8.02;;
151;SDS011;68;48.792;9.164;2022-09-01T03:21:28;12.75;;;7.40;;
151;SDS011;68;48.792;9.164;2022-09-01T03:23:56;10.88;;;7.30;;
151;SDS011;68;48.792;9.164;2022-09-01T03:26:27;15.73;;;7.63;;
151;SDS011;68;48.792;9.164;2022-09-01T03:28:55;16.25;;;7.68;;
151;SDS011;68;48.792;9.164;2022-09-01T03:31:23;11.07;;;6.93;;
151;SDS011;68;48.792;9.164;2022-09-01T03:33:52;11.20;;;6.53;;
151;SDS011;68;48.792;9.164;2022-09-01T03:36:21;11.45;;;7.03;;
151;SDS011;68;48.792;9.164;2022-09-01T03:38:49;12.23;;;7.10;;
151;SDS011;68;48.792;9.164;2022-09-01T03:41:18;16.48;;;6.85;;
151;SDS011;68;48.792;9.164;2022-09-01T03:43:48;11.73;;;6.75;;
151;SDS011;68;48.792;9.164;2022-09-01T03:46:19;11.02;;;6.53;;
151;SDS011;68;48.792;9.164;2022-09-01T03:48:46;11.60;;;6.93;;
151;SDS011;68;48.792;9.164;2022-09-01T03:51:15;16.20;;;8.07;;
151;SDS011;68;48.792;9.164;2022-09-01T03:53:43;13.85;;;7.53;;
151;SDS011;68;48.792;9.164;2022-09-01T03:56:11;14.02;;;7.50;;
151;SDS011;68;48.792;9.164;2022-09-01T03:58:39;15.10;;;7.05;;
151;SDS011;68;48.792;9.164;2022-09-01T04:01:12;12.63;;;7.28;;
151;SDS011;68;48.792;9.164;2022-09-01T04:03:40;10.40;;;6.00;;
151;SDS011;68;48.792;9.164;2022-09-01T04:06:09;12.88;;;6.72;;
151;SDS011;68;48.792;9.164;2022-09-01T04:08:36;14.10;;;7.93;;
151;SDS011;68;48.792;9.164;2022-09-01T04:11:08;11.57;;;6.60;;
151;SDS011;68;48.792;9.164;2022-09-01T04:13:38;10.65;;;6.25;;
151;SDS011;68;48.792;9.164;2022-09-01T04:16:06;13.57;;;7.15;;
151;SDS011;68;48.792;9.164;2022-09-01T04:19:03;11.55;;;7.10;;
151;SDS011;68;48.792;9.164;2022-09-01T04:21:39;13.95;;;8.10;;
151;SDS011;68;48.792;9.164;2022-09-01T04:24:07;12.10;;;7.38;;
151;SDS011;68;48.792;9.164;2022-09-01T04:26:36;10.23;;;6.75;;
151;SDS011;68;48.792;9.164;2022-09-01T04:29:03;11.75;;;6.80;;
151;SDS011;68;48.792;9.164;2022-09-01T04:31:30;11.13;;;7.03;;
151;SDS011;68;48.792;9.164;2022-09-01T04:33:57;12.93;;;7.60;;
151;SDS011;68;48.792;9.164;2022-09-01T04:36:27;12.38;;;7.57;;
151;SDS011;68;48.792;9.164;2022-09-01T04:38:58;13.38;;;7.30;;
151;SDS011;68;48.792;9.164;2022-09-01T04:41:34;15.05;;;7.78;;
151;SDS011;68;48.792;9.164;2022-09-01T04:44:02;13.27;;;8.32;;
151;SDS011;68;48.792;9.164;2022-09-01T04:46:31;14.45;;;7.63;;
151;SDS011;68;48.792;9.164;2022-09-01T04:49:00;12.65;;;8.23;;
151;SDS011;68;48.792;9.164;2022-09-01T04:51:31;14.13;;;7.78;;
151;SDS011;68;48.792;9.164;2022-09-01T04:54:00;13.85;;;7.70;;
151;SDS011;68;48.792;9.164;2022-09-01T04:56:27;11.18;;;7.55;;
151;SDS011;68;48.792;9.164;2022-09-01T04:58:54;12.70;;;7.85;;
151;SDS011;68;48.792;9.164;2022-09-01T05:01:24;15.15;;;7.93;;
151;SDS011;68;48.792;9.164;2022-09-01T05:03:52;12.32;;;7.97;;
151;SDS011;68;48.792;9.164;2022-09-01T05:06:23;12.48;;;7.45;;
151;SDS011;68;48.792;9.164;2022-09-01T05:08:51;13.30;;;7.40;;
151;SDS011;68;48.792;9.164;2022-09-01T05:11:20;14.88;;;8.57;;
151;SDS011;68;48.792;9.164;2022-09-01T05:13:48;11.25;;;7.40;;
151;SDS011;68;48.792;9.164;2022-09-01T05:16:20;14.05;;;7.65;;
151;SDS011;68;48.792;9.164;2022-09-01T05:18:48;11.80;;;7.03;;
151;SDS011;68;48.792;9.164;2022-09-01T05:21:16;14.20;;;7.28;;
151;SDS011;68;48.792;9.164;2022-09-01T05:23:48;12.77;;;7.88;;
151;SDS011;68;48.792;9.164;2022-09-01T05:26:18;14.68;;;7.97;;
151;SDS011;68;48.792;9.164;2022-09-01T05:28:48;13.43;;;7.55;;
151;SDS011;68;48.792;9.164;2022-09-01T05:31:18;12.18;;;7.70;;
151;SDS011;68;48.792;9.164;2022-09-01T05:33:45;12.40;;;7.70;;
151;SDS011;68;48.792;9.164;2022-09-01T05:36:14;12.35;;;7.57;;
151;SDS011;68;48.792;9.164;2022-09-01T05:38:42;12.20;;;7.93;;
151;SDS011;68;48.792;9.164;2022-09-01T05:41:10;14.40;;;7.60;;
151;SDS011;68;48.792;9.164;2022-09-01T05:43:40;12.57;;;7.38;;
151;SDS011;68;48.792;9.164;2022-09-01T05:46:11;14.05;;;7.10;;
151;SDS011;68;48.792;9.164;2022-09-01T05:48:40;12.13;;;7.32;;
151;SDS011;68;48.792;9.164;2022-09-01T05:51:07;14.57;;;7.20;;
151;SDS011;68;48.792;9.164;2022-09-01T05:53:36;11.23;;;6.85;;
151;SDS011;68;48.792;9.164;2022-09-01T05:56:05;12.18;;;7.95;;
151;SDS011;68;48.792;9.164;2022-09-01T05:58:34;13.57;;;7.93;;
151;SDS011;68;48.792;9.164;2022-09-01T06:01:04;12.98;;;6.95;;
151;SDS011;68;48.792;9.164;2022-09-01T06:03:35;12.88;;;7.85;;
151;SDS011;68;48.792;9.164;2022-09-01T06:06:03;9.85;;;6.53;;
151;SDS011;68;48.792;9.164;2022-09-01T06:08:33;12.77;;;7.25;;
151;SDS011;68;48.792;9.164;2022-09-01T06:11:00;13.85;;;7.03;;
151;SDS011;68;48.792;9.164;2022-09-01T06:13:28;15.65;;;7.68;;
151;SDS011;68;48.792;9.164;2022-09-01T06:15:55;15.07;;;7.28;;
151;SDS011;68;48.792;9.164;2022-09-01T06:18:23;17.63;;;8.70;;
151;SDS011;68;48.792;9.164;2022-09-01T06:20:51;11.82;;;7.10;;
151;SDS011;68;48.792;9.164;2022-09-01T06:23:19;17.75;;;8.05;;
151;SDS011;68;48.792;9.164;2022-09-01T06:25:46;14.10;;;7.65;;
151;SDS011;68;48.792;9.164;2022-09-01T06:28:13;12.55;;;7.53;;
151;SDS011;68;48.792;9.164;2022-09-01T06:30:41;15.02;;;7.00;;
151;SDS011;68;48.792;9.164;2022-09-01T06:33:09;11.23;;;6.60;;
151;SDS011;68;48.792;9.164;2022-09-01T06:35:39;12.63;;;7.75;;
151;SDS011;68;48.792;9.164;2022-09-01T06:38:08;12.30;;;7.40;;
151;SDS011;68;48.792;9.164;2022-09-01T06:40:36;10.98;;;6.72;;
151;SDS011;68;48.792;9.164;2022-09-01T06:43:06;13.88;;;6.78;;
151;SDS011;68;48.792;9.164;2022-09-01T06:45:37;16.90;;;8.20;;
151;SDS011;68;48.792;9.164;2022-09-01T06:48:06;13.30;;;6.65;;
151;SDS011;68;48.792;9.164;2022-09-01T06:50:33;10.63;;;6.88;;
151;SDS011;68;48.792;9.164;2022-09-01T06:53:04;12.02;;;7.30;;
151;SDS011;68;48.792;9.164;2022-09-01T06:55:35;12.93;;;7.40;;
151;SDS011;68;48.792;9.164;2022-09-01T06:58:02;12.75;;;6.93;;
151;SDS011;68;48.792;9.164;2022-09-01T07:00:31;14.23;;;7.63;;
151;SDS011;68;48.792;9.164;2022-09-01T07:02:59;10.75;;;6.68;;
151;SDS011;68;48.792;9.164;2022-09-01T07:05:27;11.68;;;6.25;;
151;SDS011;68;48.792;9.164;2022-09-01T07:07:58;15.15;;;7.18;;
151;SDS011;68;48.792;9.164;2022-09-01T07:10:26;10.68;;;6.60;;
151;SDS011;68;48.792;9.164;2022-09-01T07:12:54;11.75;;;6.80;;
151;SDS011;68;48.792;9.164;2022-09-01T07:15:25;13.20;;;6.80;;
151;SDS011;68;48.792;9.164;2022-09-01T07:17:56;12.43;;;6.03;;
151;SDS011;68;48.792;9.164;2022-09-01T07:20:24;9.70;;;5.78;;
151;SDS011;68;48.792;9.164;2022-09-01T07:22:53;10.88;;;6.82;;
151;SDS011;68;48.792;9.164;2022-09-01T07:25:22;11.30;;;6.00;;
151;SDS011;68;48.792;9.164;2022-09-01T07:27:50;9.73;;;6.30;;
151;SDS011;68;48.792;9.164;2022-09-01T07:30:17;9.50;;;5.97;;
151;SDS011;68;48.792;9.164;2022-09-01T07:32:45;7.80;;;5.37;;
151;SDS011;68;48.792;9.164;2022-09-01T07:35:13;9.50;;;5.90;;
151;SDS011;68;48.792;9.164;2022-09-01T07:37:44;9.83;;;4.50;;
151;SDS011;68;48.792;9.164;2022-09-01T07:40:14;23.97;;;5.77;;
151;SDS011;68;48.792;9.164;2022-09-01T07:42:43;9.07;;;5.80;;
151;SDS011;68;48.792;9.164;2022-09-01T07:45:13;8.47;;;5.30;;
151;SDS011;68;48.792;9.164;2022-09-01T07:47:42;9.50;;;5.80;;
151;SDS011;68;48.792;9.164;2022-09-01T07:50:10;13.20;;;6.10;;
151;SDS011;68;48.792;9.164;2022-09-01T07:52:39;10.27;;;6.10;;
151;SDS011;68;48.792;9.164;2022-09-01T07:55:08;10.50;;;7.10;;
151;SDS011;68;48.792;9.164;2022-09-01T07:57:36;7.17;;;4.97;;
151;SDS011;68;48.792;9.164;2022-09-01T08:00:07;7.80;;;4.70;;
151;SDS011;68;48.792;9.164;2022-09-01T08:02:36;9.90;;;5.80;;
151;SDS011;68;48.792;9.164;2022-09-01T08:05:04;7.67;;;5.30;;
151;SDS011;68;48.792;9.164;2022-09-01T08:07:33;7.50;;;4.90;;
151;SDS011;68;48.792;9.164;2022-09-01T08:10:00;6.53;;;4.23;;
151;SDS011;68;48.792;9.164;2022-09-01T08:12:27;6.63;;;4.77;;
151;SDS011;68;48.792;9.164;2022-09-01T08:14:55;7.00;;;5.10;;
151;SDS011;68;48.792;9.164;2022-09-01T08:17:21;6.53;;;4.70;;
151;SDS011;68;48.792;9.164;2022-09-01T08:19:50;9.13;;;5.40;;
151;SDS011;68;48.792;9.164;2022-09-01T08:22:17;6.47;;;4.10;;
151;SDS011;68;48.792;9.164;2022-09-01T08:24:47;9.70;;;5.97;;
151;SDS011;68;48.792;9.164;2022-09-01T08:27:14;7.60;;;5.27;;
151;SDS011;68;48.792;9.164;2022-09-01T08:29:41;7.90;;;5.03;;
151;SDS011;68;48.792;9.164;2022-09-01T08:32:08;7.10;;;4.70;;
151;SDS011;68;48.792;9.164;2022-09-01T08:34:35;6.20;;;3.83;;
151;SDS011;68;48.792;9.164;2022-09-01T08:37:04;7.33;;;4.47;;
151;SDS011;68;48.792;9.164;2022-09-01T08:39:31;6.67;;;4.63;;
151;SDS011;68;48.792;9.164;2022-09-01T08:42:01;8.27;;;4.90;;
151;SDS011;68;48.792;9.164;2022-09-01T08:44:37;6.87;;;4.63;;
151;SDS011;68;48.792;9.164;2022-09-01T08:47:10;7.13;;;4.60;;
151;SDS011;68;48.792;9.164;2022-09-01T08:49:39;7.60;;;4.73;;
151;SDS011;68;48.792;9.164;2022-09-01T08:52:12;7.40;;;4.57;;
151;SDS011;68;48.792;9.164;2022-09-01T08:54:49;5.90;;;4.20;;
151;SDS011;68;48.792;9.164;2022-09-01T08:57:22;6.70;;;3.73;;
151;SDS011;68;48.792;9.164;2022-09-01T08:59:54;8.00;;;4.90;;
151;SDS011;68;48.792;9.164;2022-09-01T09:02:26;6.53;;;4.30;;
151;SDS011;68;48.792;9.164;2022-09-01T09:05:04;7.57;;;4.50;;
151;SDS011;68;48.792;9.164;2022-09-01T09:10:34;5.00;;;3.50;;
151;SDS011;68;48.792;9.164;2022-09-01T09:13:09;5.40;;;3.70;;
151;SDS011;68;48.792;9.164;2022-09-01T09:15:44;5.80;;;3.83;;
151;SDS011;68;48.792;9.164;2022-09-01T09:18:18;5.00;;;3.67;;
151;SDS011;68;48.792;9.164;2022-09-01T09:20:52;7.43;;;3.70;;
151;SDS011;68;48.792;9.164;2022-09-01T09:23:23;5.47;;;4.10;;
151;SDS011;68;48.792;9.164;2022-09-01T09:25:52;6.80;;;4.40;;
151;SDS011;68;48.792;9.164;2022-09-01T09:28:19;6.00;;;3.77;;
151;SDS011;68;48.792;9.164;2022-09-01T09:30:45;7.23;;;4.17;;
151;SDS011;68;48.792;9.164;2022-09-01T09:33:31;5.70;;;4.17;;
151;SDS011;68;48.792;9.164;2022-09-01T09:36:15;7.07;;;4.53;;
151;SDS011;68;48.792;9.164;2022-09-01T09:38:45;5.70;;;4.20;;
151;SDS011;68;48.792;9.164;2022-09-01T09:41:14;5.40;;;3.53;;
151;SDS011;68;48.792;9.164;2022-09-01T09:43:43;7.97;;;4.67;;
151;SDS011;68;48.792;9.164;2022-09-01T09:46:20;6.07;;;3.60;;
151;SDS011;68;48.792;9.164;2022-09-01T09:48:51;8.40;;;3.90;;
151;SDS011;68;48.792;9.164;2022-09-01T09:51:34;13.07;;;4.40;;
151;SDS011;68;48.792;9.164;2022-09-01T09:54:16;5.00;;;3.73;;
151;SDS011;68;48.792;9.164;2022-09-01T09:56:45;6.37;;;4.10;;
151;SDS011;68;48.792;9.164;2022-09-01T09:59:15;6.43;;;3.90;;
151;SDS011;68;48.792;9.164;2022-09-01T10:01:53;6.30;;;3.60;;
151;SDS011;68;48.792;9.164;2022-09-01T10:04:33;7.03;;;4.17;;
151;SDS011;68;48.792;9.164;2022-09-01T10:07:21;4.00;;;3.10;;
151;SDS011;68;48.792;9.164;2022-09-01T10:09:51;5.43;;;3.60;;
151;SDS011;68;48.792;9.164;2022-09-01T10:12:20;6.23;;;4.13;;
151;SDS011;68;48.792;9.164;2022-09-01T10:14:49;5.57;;;3.73;;
151;SDS011;68;48.792;9.164;2022-09-01T10:17:19;4.60;;;3.20;;
151;SDS011;68;48.792;9.164;2022-09-01T10:19:52;5.10;;;3.50;;
151;SDS011;68;48.792;9.164;2022-09-01T10:22:22;5.00;;;3.40;;
151;SDS011;68;48.792;9.164;2022-09-01T10:24:51;5.17;;;3.23;;
151;SDS011;68;48.792;9.164;2022-09-01T10:27:19;5.93;;;3.80;;
151;SDS011;68;48.792;9.164;2022-09-01T10:29:50;5.90;;;3.20;;
151;SDS011;68;48.792;9.164;2022-09-01T10:32:21;3.93;;;3.10;;
151;SDS011;68;48.792;9.164;2022-09-01T10:34:52;4.07;;;3.27;;
151;SDS011;68;48.792;9.164;2022-09-01T10:37:20;4.97;;;3.37;;
151;SDS011;68;48.792;9.164;2022-09-01T10:42:44;4.60;;;3.50;;
151;SDS011;68;48.792;9.164;2022-09-01T10:45:28;3.90;;;2.97;;
151;SDS011;68;48.792;9.164;2022-09-01T10:50:49;4.77;;;3.30;;
151;SDS011;68;48.792;9.164;2022-09-01T10:56:04;5.07;;;3.20;;
151;SDS011;68;48.792;9.164;2022-09-01T10:58:38;4.60;;;3.13;;
151;SDS011;68;48.792;9.164;2022-09-01T11:07:29;3.57;;;2.70;;
151;SDS011;68;48.792;9.164;2022-09-01T11:10:11;3.40;;;2.60;;
151;SDS011;68;48.792;9.164;2022-09-01T11:13:00;4.10;;;2.97;;
151;SDS011;68;48.792;9.164;2022-09-01T11:15:43;3.67;;;3.00;;
151;SDS011;68;48.792;9.164;2022-09-01T11:18:13;3.60;;;2.80;;
151;SDS011;68;48.792;9.164;2022-09-01T11:20:42;4.20;;;2.60;;
151;SDS011;68;48.792;9.164;2022-09-01T11:23:11;3.60;;;2.73;;
151;SDS011;68;48.792;9.164;2022-09-01T11:25:45;4.00;;;3.00;;
151;SDS011;68;48.792;9.164;2022-09-01T11:31:10;7.40;;;3.30;;
151;SDS011;68;48.792;9.164;2022-09-01T11:36:45;4.50;;;2.87;;
151;SDS011;68;48.792;9.164;2022-09-01T11:39:21;3.77;;;2.90;;
151;SDS011;68;48.792;9.164;2022-09-01T11:41:57;4.10;;;2.83;;
151;SDS011;68;48.792;9.164;2022-09-01T11:44:29;2.97;;;2.50;;
151;SDS011;68;48.792;9.164;2022-09-01T11:47:02;4.20;;;3.10;;
151;SDS011;68;48.792;9.164;2022-09-01T11:49:32;3.80;;;2.90;;
151;SDS011;68;48.792;9.164;2022-09-01T11:52:00;3.20;;;2.63;;
151;SDS011;68;48.792;9.164;2022-09-01T11:54:35;3.03;;;2.50;;
151;SDS011;68;48.792;9.164;2022-09-01T11:57:15;4.23;;;2.60;;
151;SDS011;68;48.792;9.164;2022-09-01T11:59:45;3.03;;;2.63;;
151;SDS011;68;48.792;9.164;2022-09-01T12:02:16;3.77;;;2.50;;
151;SDS011;68;48.792;9.164;2022-09-01T12:04:44;4.90;;;3.00;;
151;SDS011;68;48.792;9.164;2022-09-01T12:07:12;3.63;;;2.80;;
151;SDS011;68;48.792;9.164;2022-09-01T12:09:49;2.97;;;2.43;;
151;SDS011;68;48.792;9.164;2022-09-01T12:12:28;3.40;;;2.70;;
151;SDS011;68;48.792;9.164;2022-09-01T12:14:59;5.27;;;3.03;;
151;SDS011;68;48.792;9.164;2022-09-01T12:17:27;3.13;;;2.73;;
151;SDS011;68;48.792;9.164;2022-09-01T12:19:54;4.53;;;2.80;;
151;SDS011;68;48.792;9.164;2022-09-01T12:22:21;4.50;;;3.30;;
151;SDS011;68;48.792;9.164;2022-09-01T12:24:54;5.20;;;3.37;;
151;SDS011;68;48.792;9.164;2022-09-01T12:27:31;3.60;;;3.00;;
151;SDS011;68;48.792;9.164;2022-09-01T12:30:02;3.93;;;3.10;;
151;SDS011;68;48.792;9.164;2022-09-01T12:32:29;5.60;;;3.27;;
151;SDS011;68;48.792;9.164;2022-09-01T12:34:58;4.13;;;3.20;;
151;SDS011;68;48.792;9.164;2022-09-01T12:37:27;4.57;;;3.17;;
151;SDS011;68;48.792;9.164;2022-09-01T12:39:54;3.47;;;2.80;;
151;SDS011;68;48.792;9.164;2022-09-01T12:42:24;3.50;;;2.90;;
151;SDS011;68;48.792;9.164;2022-09-01T12:44:54;4.00;;;2.90;;
151;SDS011;68;48.792;9.164;2022-09-01T12:50:32;3.33;;;2.53;;
151;SDS011;68;48.792;9.164;2022-09-01T12:53:14;4.50;;;2.87;;
151;SDS011;68;48.792;9.164;2022-09-01T12:56:03;3.67;;;2.80;;
151;SDS011;68;48.792;9.164;2022-09-01T12:58:41;3.03;;;2.40;;
151;SDS011;68;48.792;9.164;2022-09-01T13:01:22;3.47;;;2.67;;
151;SDS011;68;48.792;9.164;2022-09-01T13:06:51;3.90;;;2.80;;
151;SDS011;68;48.792;9.164;2022-09-01T13:09:19;3.37;;;2.60;;
151;SDS011;68;48.792;9.164;2022-09-01T13:11:46;5.07;;;2.60;;
151;SDS011;68;48.792;9.164;2022-09-01T13:14:15;4.03;;;2.70;;
151;SDS011;68;48.792;9.164;2022-09-01T13:16:43;3.47;;;2.40;;
151;SDS011;68;48.792;9.164;2022-09-01T13:19:12;4.17;;;2.77;;
151;SDS011;68;48.792;9.164;2022-09-01T13:21:40;4.40;;;2.97;;
151;SDS011;68;48.792;9.164;2022-09-01T13:24:07;3.57;;;2.47;;
151;SDS011;68;48.792;9.164;2022-09-01T13:26:34;3.67;;;2.70;;
151;SDS011;68;48.792;9.164;2022-09-01T13:29:03;4.70;;;2.43;;
151;SDS011;68;48.792;9.164;2022-09-01T13:31:30;4.57;;;3.00;;
151;SDS011;68;48.792;9.164;2022-09-01T13:34:00;2.70;;;2.33;;
151;SDS011;68;48.792;9.164;2022-09-01T13:36:30;3.23;;;2.73;;
151;SDS011;68;48.792;9.164;2022-09-01T13:38:58;4.27;;;2.70;;
151;SDS011;68;48.792;9.164;2022-09-01T13:41:25;3.40;;;2.63;;
151;SDS011;68;48.792;9.164;2022-09-01T13:43:51;5.67;;;2.90;;
151;SDS011;68;48.792;9.164;2022-09-01T13:46:19;3.93;;;2.80;;
151;SDS011;68;48.792;9.164;2022-09-01T13:48:46;3.93;;;2.80;;
151;SDS011;68;48.792;9.164;2022-09-01T13:51:23;3.60;;;2.50;;
151;SDS011;68;48.792;9.164;2022-09-01T13:53:51;3.70;;;2.73;;
151;SDS011;68;48.792;9.164;2022-09-01T13:56:19;4.37;;;2.87;;
151;SDS011;68;48.792;9.164;2022-09-01T13:58:46;3.53;;;2.57;;
151;SDS011;68;48.792;9.164;2022-09-01T14:01:15;3.70;;;2.83;;
151;SDS011;68;48.792;9.164;2022-09-01T14:03:43;3.70;;;2.77;;
151;SDS011;68;48.792;9.164;2022-09-01T14:06:10;9.60;;;2.87;;
151;SDS011;68;48.792;9.164;2022-09-01T14:08:36;4.00;;;2.90;;
151;SDS011;68;48.792;9.164;2022-09-01T14:11:03;2.53;;;2.10;;
151;SDS011;68;48.792;9.164;2022-09-01T14:13:32;3.17;;;2.67;;
151;SDS011;68;48.792;9.164;2022-09-01T14:15:59;3.33;;;2.57;;
151;SDS011;68;48.792;9.164;2022-09-01T14:18:26;3.80;;;2.60;;
151;SDS011;68;48.792;9.164;2022-09-01T14:20:56;2.53;;;2.40;;
151;SDS011;68;48.792;9.164;2022-09-01T14:23:25;5.33;;;3.00;;
151;SDS011;68;48.792;9.164;2022-09-01T14:25:52;4.17;;;2.90;;
151;SDS011;68;48.792;9.164;2022-09-01T14:28:20;3.53;;;2.80;;
151;SDS011;68;48.792;9.164;2022-09-01T14:30:49;3.17;;;2.27;;
151;SDS011;68;48.792;9.164;2022-09-01T14:33:16;3.87;;;2.83;;
151;SDS011;68;48.792;9.164;2022-09-01T14:35:48;3.03;;;2.43;;
151;SDS011;68;48.792;9.164;2022-09-01T14:38:15;4.63;;;3.00;;
151;SDS011;68;48.792;9.164;2022-09-01T14:40:42;5.03;;;3.53;;
151;SDS011;68;48.792;9.164;2022-09-01T14:43:13;3.43;;;2.93;;
151;SDS011;68;48.792;9.164;2022-09-01T14:45:40;3.07;;;2.50;;
151;SDS011;68;48.792;9.164;2022-09-01T14:48:11;3.90;;;2.80;;
151;SDS011;68;48.792;9.164;2022-09-01T14:50:39;3.43;;;2.63;;
151;SDS011;68;48.792;9.164;2022-09-01T14:53:07;3.63;;;2.83;;
151;SDS011;68;48.792;9.164;2022-09-01T14:55:34;3.30;;;2.50;;
151;SDS011;68;48.792;9.164;2022-09-01T14:58:01;3.70;;;2.60;;
151;SDS011;68;48.792;9.164;2022-09-01T15:00:29;3.40;;;2.60;;
151;SDS011;68;48.792;9.164;2022-09-01T15:02:59;5.30;;;2.57;;
151;SDS011;68;48.792;9.164;2022-09-01T15:05:27;4.10;;;2.80;;
151;SDS011;68;48.792;9.164;2022-09-01T15:07:54;3.87;;;2.60;;
151;SDS011;68;48.792;9.164;2022-09-01T15:10:22;4.00;;;2.80;;
151;SDS011;68;48.792;9.164;2022-09-01T15:12:50;3.90;;;2.50;;
151;SDS011;68;48.792;9.164;2022-09-01T15:15:17;3.10;;;2.50;;
151;SDS011;68;48.792;9.164;2022-09-01T15:17:44;3.23;;;2.50;;
151;SDS011;68;48.792;9.164;2022-09-01T15:20:11;3.83;;;2.60;;
151;SDS011;68;48.792;9.164;2022-09-01T15:22:57;4.17;;;2.90;;
151;SDS011;68;48.792;9.164;2022-09-01T15:25:24;2.90;;;2.20;;
151;SDS011;68;48.792;9.164;2022-09-01T15:27:51;4.10;;;2.37;;
151;SDS011;68;48.792;9.164;2022-09-01T15:30:18;2.87;;;2.37;;
151;SDS011;68;48.792;9.164;2022-09-01T15:32:47;3.33;;;2.40;;
151;SDS011;68;48.792;9.164;2022-09-01T15:35:15;3.47;;;2.60;;
151;SDS011;68;48.792;9.164;2022-09-01T15:37:42;3.40;;;2.63;;
151;SDS011;68;48.792;9.164;2022-09-01T15:40:12;3.17;;;2.60;;
151;SDS011;68;48.792;9.164;2022-09-01T15:42:39;3.70;;;2.57;;
151;SDS011;68;48.792;9.164;2022-09-01T15:45:08;3.60;;;2.70;;
151;SDS011;68;48.792;9.164;2022-09-01T15:47:37;3.30;;;2.47;;
151;SDS011;68;48.792;9.164;2022-09-01T15:50:05;3.27;;;2.67;;
151;SDS011;68;48.792;9.164;2022-09-01T15:52:33;3.27;;;2.73;;
151;SDS011;68;48.792;9.164;2022-09-01T15:55:01;3.37;;;2.80;;
151;SDS011;68;48.792;9.164;2022-09-01T15:57:30;3.20;;;2.40;;
151;SDS011;68;48.792;9.164;2022-09-01T15:59:57;2.80;;;2.60;;
151;SDS011;68;48.792;9.164;2022-09-01T16:02:23;3.30;;;2.47;;
151;SDS011;68;48.792;9.164;2022-09-01T16:04:51;4.10;;;2.83;;
151;SDS011;68;48.792;9.164;2022-09-01T16:07:20;3.07;;;2.40;;
151;SDS011;68;48.792;9.164;2022-09-01T16:09:47;4.80;;;2.80;;
151;SDS011;68;48.792;9.164;2022-09-01T16:12:16;2.67;;;2.33;;
151;SDS011;68;48.792;9.164;2022-09-01T16:14:46;3.63;;;2.80;;
151;SDS011;68;48.792;9.164;2022-09-01T16:17:14;3.23;;;2.73;;
151;SDS011;68;48.792;9.164;2022-09-01T16:19:49;3.30;;;2.67;;
151;SDS011;68;48.792;9.164;2022-09-01T16:22:20;2.67;;;2.40;;
151;SDS011;68;48.792;9.164;2022-09-01T16:24:51;3.07;;;2.43;;
151;SDS011;68;48.792;9.164;2022-09-01T16:27:22;3.43;;;2.60;;
151;SDS011;68;48.792;9.164;2022-09-01T16:29:59;2.90;;;2.53;;
151;SDS011;68;48.792;9.164;2022-09-01T16:32:28;3.40;;;2.80;;
151;SDS011;68;48.792;9.164;2022-09-01T16:34:57;2.83;;;2.33;;
151;SDS011;68;48.792;9.164;2022-09-01T16:37:34;2.70;;;2.37;;
151;SDS011;68;48.792;9.164;2022-09-01T16:40:09;4.73;;;3.07;;
151;SDS011;68;48.792;9.164;2022-09-01T16:42:44;3.47;;;2.67;;